sensor_id;sensor_type;location;lat;lon;timestamp;P1;durP1;ratioP1;P2;durP2;ratioP2
8650;SDS011;4363;52.346;14.516;2024-01-07T10:25:03;175.80;;;28.70;;
8650;SDS011;4363;52.346;14.516;2024-01-07T10:27:29;159.60;;;25.47;;
8650;SDS011;4363;52.346;14.516;2024-01-07T10:29:57;158.57;;;25.13;;
8650;SDS011;4363;52.346;14.516;2024-01-07T10:32:23;217.10;;;34.13;;
8650;SDS011;4363;52.346;14.516;2024-01-07T10:34:49;188.23;;;31.33;;
8650;SDS011;4363;52.346;14.516;2024-01-07T10:37:23;188.27;;;29.00;;
8650;SDS011;4363;52.346;14.516;2024-01-07T10:39:49;163.13;;;27.73;;
8650;SDS011;4363;52.346;14.516;2024-01-07T10:42:16;148.77;;;23.63;;
8650;SDS011;4363;52.346;14.516;2024-01-07T10:44:43;223.47;;;49.10;;
8650;SDS011;4363;52.346;14.516;2024-01-07T10:47:09;166.80;;;35.80;;
8650;SDS011;4363;52.346;14.516;2024-01-07T10:49:37;181.57;;;37.80;;
8650;SDS011;4363;52.346;14.516;2024-01-07T10:52:07;212.50;;;44.07;;
8650;SDS011;4363;52.346;14.516;2024-01-07T10:54:36;223.77;;;44.77;;
8650;SDS011;4363;52.346;14.516;2024-01-07T10:59:52;231.90;;;46.43;;
8650;SDS011;4363;52.346;14.516;2024-01-07T11:02:20;197.27;;;41.37;;
8650;SDS011;4363;52.346;14.516;2024-01-07T11:04:51;191.33;;;38.27;;
8650;SDS011;4363;52.346;14.516;2024-01-07T11:12:30;194.30;;;42.90;;
8650;SDS011;4363;52.346;14.516;2024-01-07T11:14:56;209.07;;;47.03;;
8650;SDS011;4363;52.346;14.516;2024-01-07T11:17:44;178.87;;;35.27;;
8650;SDS011;4363;52.346;14.516;2024-01-07T11:20:19;167.07;;;34.23;;
8650;SDS011;4363;52.346;14.516;2024-01-07T11:22:46;189.90;;;37.87;;
8650;SDS011;4363;52.346;14.516;2024-01-07T11:25:27;169.03;;;34.23;;
8650;SDS011;4363;52.346;14.516;2024-01-07T11:27:55;197.67;;;42.70;;
8650;SDS011;4363;52.346;14.516;2024-01-07T11:30:21;217.33;;;43.53;;
8650;SDS011;4363;52.346;14.516;2024-01-07T11:32:48;204.67;;;38.77;;
8650;SDS011;4363;52.346;14.516;2024-01-07T11:35:53;175.27;;;37.27;;
8650;SDS011;4363;52.346;14.516;2024-01-07T11:38:21;175.57;;;36.00;;
8650;SDS011;4363;52.346;14.516;2024-01-07T11:40:47;216.53;;;46.20;;
8650;SDS011;4363;52.346;14.516;2024-01-07T11:43:15;177.03;;;35.30;;
8650;SDS011;4363;52.346;14.516;2024-01-07T11:45:41;218.00;;;42.77;;
8650;SDS011;4363;52.346;14.516;2024-01-07T11:48:07;208.23;;;39.63;;
8650;SDS011;4363;52.346;14.516;2024-01-07T11:50:34;187.50;;;38.27;;
8650;SDS011;4363;52.346;14.516;2024-01-07T11:53:00;229.77;;;45.50;;
8650;SDS011;4363;52.346;14.516;2024-01-07T11:55:26;221.90;;;44.53;;
8650;SDS011;4363;52.346;14.516;2024-01-07T11:57:54;155.67;;;34.13;;
8650;SDS011;4363;52.346;14.516;2024-01-07T12:00:21;146.73;;;31.27;;
8650;SDS011;4363;52.346;14.516;2024-01-07T12:02:47;150.70;;;39.00;;
8650;SDS011;4363;52.346;14.516;2024-01-07T12:05:13;218.77;;;51.27;;
8650;SDS011;4363;52.346;14.516;2024-01-07T12:07:41;217.00;;;52.00;;
8650;SDS011;4363;52.346;14.516;2024-01-07T12:10:07;199.53;;;42.30;;
8650;SDS011;4363;52.346;14.516;2024-01-07T12:12:40;168.67;;;38.07;;
8650;SDS011;4363;52.346;14.516;2024-01-07T12:15:07;174.17;;;34.97;;
8650;SDS011;4363;52.346;14.516;2024-01-07T12:17:33;161.67;;;34.60;;
8650;SDS011;4363;52.346;14.516;2024-01-07T12:20:00;147.03;;;38.57;;
8650;SDS011;4363;52.346;14.516;2024-01-07T12:22:29;195.43;;;39.90;;
8650;SDS011;4363;52.346;14.516;2024-01-07T12:25:05;204.60;;;43.07;;
8650;SDS011;4363;52.346;14.516;2024-01-07T12:27:31;207.77;;;46.17;;
8650;SDS011;4363;52.346;14.516;2024-01-07T12:29:58;181.10;;;42.53;;
8650;SDS011;4363;52.346;14.516;2024-01-07T12:32:27;211.77;;;58.50;;
8650;SDS011;4363;52.346;14.516;2024-01-07T12:34:57;213.63;;;121.07;;
8650;SDS011;4363;52.346;14.516;2024-01-07T12:37:26;223.77;;;116.53;;
8650;SDS011;4363;52.346;14.516;2024-01-07T12:39:53;196.43;;;126.30;;
8650;SDS011;4363;52.346;14.516;2024-01-07T12:42:19;237.90;;;119.63;;
8650;SDS011;4363;52.346;14.516;2024-01-07T12:44:47;263.20;;;122.17;;
8650;SDS011;4363;52.346;14.516;2024-01-07T12:47:14;279.53;;;150.03;;
8650;SDS011;4363;52.346;14.516;2024-01-07T12:49:40;280.87;;;110.87;;
8650;SDS011;4363;52.346;14.516;2024-01-07T12:52:06;234.37;;;99.77;;
8650;SDS011;4363;52.346;14.516;2024-01-07T12:54:32;236.27;;;98.63;;
8650;SDS011;4363;52.346;14.516;2024-01-07T12:56:58;237.07;;;100.00;;
8650;SDS011;4363;52.346;14.516;2024-01-07T12:59:25;280.20;;;115.37;;
8650;SDS011;4363;52.346;14.516;2024-01-07T13:01:51;250.77;;;105.67;;
8650;SDS011;4363;52.346;14.516;2024-01-07T13:04:17;239.87;;;101.10;;
8650;SDS011;4363;52.346;14.516;2024-01-07T13:06:44;245.27;;;98.17;;
8650;SDS011;4363;52.346;14.516;2024-01-07T13:09:10;212.53;;;91.33;;
8650;SDS011;4363;52.346;14.516;2024-01-07T13:11:36;207.27;;;86.97;;
8650;SDS011;4363;52.346;14.516;2024-01-07T13:14:02;252.10;;;92.40;;
8650;SDS011;4363;52.346;14.516;2024-01-07T13:16:28;187.17;;;72.73;;
8650;SDS011;4363;52.346;14.516;2024-01-07T13:18:54;220.50;;;79.10;;
8650;SDS011;4363;52.346;14.516;2024-01-07T13:21:20;225.57;;;74.67;;
8650;SDS011;4363;52.346;14.516;2024-01-07T13:23:46;240.87;;;75.40;;
8650;SDS011;4363;52.346;14.516;2024-01-07T13:26:15;235.60;;;73.17;;
8650;SDS011;4363;52.346;14.516;2024-01-07T13:28:41;207.30;;;75.93;;
8650;SDS011;4363;52.346;14.516;2024-01-07T13:31:10;202.70;;;69.73;;
8650;SDS011;4363;52.346;14.516;2024-01-07T13:33:40;179.73;;;56.17;;
8650;SDS011;4363;52.346;14.516;2024-01-07T13:36:06;202.97;;;65.17;;
8650;SDS011;4363;52.346;14.516;2024-01-07T13:38:35;226.43;;;55.53;;
8650;SDS011;4363;52.346;14.516;2024-01-07T13:41:03;236.60;;;58.83;;
8650;SDS011;4363;52.346;14.516;2024-01-07T13:43:29;241.30;;;59.97;;
8650;SDS011;4363;52.346;14.516;2024-01-07T13:45:55;195.23;;;50.73;;
8650;SDS011;4363;52.346;14.516;2024-01-07T13:48:21;194.33;;;39.53;;
8650;SDS011;4363;52.346;14.516;2024-01-07T13:50:47;202.53;;;45.73;;
8650;SDS011;4363;52.346;14.516;2024-01-07T13:53:14;176.50;;;40.07;;
8650;SDS011;4363;52.346;14.516;2024-01-07T13:55:40;237.97;;;50.57;;
8650;SDS011;4363;52.346;14.516;2024-01-07T13:58:06;216.77;;;43.83;;
8650;SDS011;4363;52.346;14.516;2024-01-07T14:00:32;196.00;;;39.13;;
8650;SDS011;4363;52.346;14.516;2024-01-07T14:02:58;174.67;;;35.83;;
8650;SDS011;4363;52.346;14.516;2024-01-07T14:05:24;213.07;;;43.37;;
8650;SDS011;4363;52.346;14.516;2024-01-07T14:07:50;167.03;;;32.03;;
8650;SDS011;4363;52.346;14.516;2024-01-07T14:10:16;213.33;;;41.53;;
8650;SDS011;4363;52.346;14.516;2024-01-07T14:12:44;156.87;;;32.60;;
8650;SDS011;4363;52.346;14.516;2024-01-07T14:15:10;222.67;;;45.17;;
8650;SDS011;4363;52.346;14.516;2024-01-07T14:17:36;219.57;;;42.27;;
8650;SDS011;4363;52.346;14.516;2024-01-07T14:20:02;174.40;;;34.13;;
8650;SDS011;4363;52.346;14.516;2024-01-07T14:22:28;213.27;;;41.57;;
8650;SDS011;4363;52.346;14.516;2024-01-07T14:24:54;198.53;;;38.37;;
8650;SDS011;4363;52.346;14.516;2024-01-07T14:27:20;173.40;;;35.60;;
8650;SDS011;4363;52.346;14.516;2024-01-07T14:29:46;180.10;;;35.43;;
8650;SDS011;4363;52.346;14.516;2024-01-07T14:32:13;211.00;;;41.37;;
8650;SDS011;4363;52.346;14.516;2024-01-07T14:34:39;203.77;;;41.37;;
8650;SDS011;4363;52.346;14.516;2024-01-07T14:37:09;230.93;;;43.43;;
8650;SDS011;4363;52.346;14.516;2024-01-07T14:39:35;211.27;;;42.57;;
8650;SDS011;4363;52.346;14.516;2024-01-07T14:42:01;165.67;;;32.20;;
8650;SDS011;4363;52.346;14.516;2024-01-07T14:44:27;246.00;;;52.40;;
8650;SDS011;4363;52.346;14.516;2024-01-07T14:46:53;264.50;;;53.87;;
8650;SDS011;4363;52.346;14.516;2024-01-07T14:49:19;214.20;;;45.07;;
8650;SDS011;4363;52.346;14.516;2024-01-07T14:51:46;282.47;;;57.90;;
8650;SDS011;4363;52.346;14.516;2024-01-07T14:54:12;239.30;;;48.30;;
8650;SDS011;4363;52.346;14.516;2024-01-07T14:56:38;289.17;;;59.57;;
8650;SDS011;4363;52.346;14.516;2024-01-07T14:59:04;235.77;;;50.73;;
8650;SDS011;4363;52.346;14.516;2024-01-07T15:01:30;253.20;;;56.83;;
8650;SDS011;4363;52.346;14.516;2024-01-07T15:03:56;221.43;;;45.53;;
8650;SDS011;4363;52.346;14.516;2024-01-07T15:06:22;280.97;;;68.17;;
8650;SDS011;4363;52.346;14.516;2024-01-07T15:08:49;184.10;;;39.77;;
8650;SDS011;4363;52.346;14.516;2024-01-07T15:11:16;186.97;;;35.37;;
8650;SDS011;4363;52.346;14.516;2024-01-07T15:13:41;228.77;;;42.93;;
8650;SDS011;4363;52.346;14.516;2024-01-07T15:16:08;234.77;;;47.60;;
8650;SDS011;4363;52.346;14.516;2024-01-07T15:18:34;294.57;;;60.10;;
8650;SDS011;4363;52.346;14.516;2024-01-07T15:21:01;222.40;;;45.33;;
8650;SDS011;4363;52.346;14.516;2024-01-07T15:23:30;184.50;;;36.53;;
8650;SDS011;4363;52.346;14.516;2024-01-07T15:25:56;302.17;;;64.17;;
8650;SDS011;4363;52.346;14.516;2024-01-07T15:28:22;223.73;;;44.70;;
8650;SDS011;4363;52.346;14.516;2024-01-07T15:30:48;257.30;;;49.13;;
8650;SDS011;4363;52.346;14.516;2024-01-07T15:33:17;243.80;;;49.27;;
8650;SDS011;4363;52.346;14.516;2024-01-07T15:35:43;258.73;;;55.20;;
8650;SDS011;4363;52.346;14.516;2024-01-07T15:38:09;182.87;;;34.50;;
8650;SDS011;4363;52.346;14.516;2024-01-07T15:40:35;160.77;;;32.77;;
8650;SDS011;4363;52.346;14.516;2024-01-07T15:43:01;197.10;;;37.03;;
8650;SDS011;4363;52.346;14.516;2024-01-07T15:45:27;162.03;;;29.13;;
8650;SDS011;4363;52.346;14.516;2024-01-07T15:47:53;225.63;;;44.23;;
8650;SDS011;4363;52.346;14.516;2024-01-07T15:50:19;202.50;;;36.07;;
8650;SDS011;4363;52.346;14.516;2024-01-07T15:52:45;280.00;;;55.77;;
8650;SDS011;4363;52.346;14.516;2024-01-07T15:55:13;263.87;;;53.00;;
8650;SDS011;4363;52.346;14.516;2024-01-07T15:57:40;262.57;;;49.63;;
8650;SDS011;4363;52.346;14.516;2024-01-07T16:00:07;224.73;;;42.97;;
8650;SDS011;4363;52.346;14.516;2024-01-07T16:02:33;204.43;;;37.20;;
8650;SDS011;4363;52.346;14.516;2024-01-07T16:04:59;198.97;;;36.70;;
8650;SDS011;4363;52.346;14.516;2024-01-07T16:07:25;240.37;;;46.77;;
8650;SDS011;4363;52.346;14.516;2024-01-07T16:09:51;291.23;;;57.87;;
8650;SDS011;4363;52.346;14.516;2024-01-07T16:12:17;253.63;;;49.20;;
8650;SDS011;4363;52.346;14.516;2024-01-07T16:14:43;253.00;;;52.07;;
8650;SDS011;4363;52.346;14.516;2024-01-07T16:17:09;159.17;;;29.93;;
8650;SDS011;4363;52.346;14.516;2024-01-07T16:19:35;217.57;;;41.40;;
8650;SDS011;4363;52.346;14.516;2024-01-07T16:22:02;150.50;;;27.07;;
8650;SDS011;4363;52.346;14.516;2024-01-07T16:24:32;276.27;;;54.27;;
8650;SDS011;4363;52.346;14.516;2024-01-07T16:26:59;245.20;;;49.37;;
8650;SDS011;4363;52.346;14.516;2024-01-07T16:29:25;291.10;;;56.17;;
8650;SDS011;4363;52.346;14.516;2024-01-07T16:31:51;213.57;;;41.30;;
8650;SDS011;4363;52.346;14.516;2024-01-07T16:34:17;219.33;;;42.17;;
8650;SDS011;4363;52.346;14.516;2024-01-07T16:36:43;259.80;;;50.77;;
8650;SDS011;4363;52.346;14.516;2024-01-07T16:39:09;217.23;;;41.57;;
8650;SDS011;4363;52.346;14.516;2024-01-07T16:41:35;169.93;;;31.90;;
8650;SDS011;4363;52.346;14.516;2024-01-07T16:44:01;211.13;;;39.50;;
8650;SDS011;4363;52.346;14.516;2024-01-07T16:46:27;226.97;;;41.87;;
8650;SDS011;4363;52.346;14.516;2024-01-07T16:48:53;223.87;;;42.43;;
8650;SDS011;4363;52.346;14.516;2024-01-07T16:51:19;254.57;;;48.10;;
8650;SDS011;4363;52.346;14.516;2024-01-07T16:53:45;235.63;;;44.33;;
8650;SDS011;4363;52.346;14.516;2024-01-07T16:56:12;163.40;;;32.33;;
8650;SDS011;4363;52.346;14.516;2024-01-07T16:58:38;174.37;;;32.90;;
8650;SDS011;4363;52.346;14.516;2024-01-07T17:01:04;179.77;;;33.40;;
8650;SDS011;4363;52.346;14.516;2024-01-07T17:03:30;254.90;;;47.17;;
8650;SDS011;4363;52.346;14.516;2024-01-07T17:05:56;283.60;;;56.63;;
8650;SDS011;4363;52.346;14.516;2024-01-07T17:08:23;215.27;;;37.50;;
8650;SDS011;4363;52.346;14.516;2024-01-07T17:10:49;262.53;;;51.90;;
8650;SDS011;4363;52.346;14.516;2024-01-07T17:13:15;208.27;;;38.43;;
8650;SDS011;4363;52.346;14.516;2024-01-07T17:15:41;265.60;;;51.97;;
8650;SDS011;4363;52.346;14.516;2024-01-07T17:18:07;244.07;;;46.43;;
8650;SDS011;4363;52.346;14.516;2024-01-07T17:20:36;335.13;;;62.67;;
8650;SDS011;4363;52.346;14.516;2024-01-07T17:23:06;189.43;;;33.37;;
8650;SDS011;4363;52.346;14.516;2024-01-07T17:25:32;244.73;;;41.07;;
8650;SDS011;4363;52.346;14.516;2024-01-07T17:27:58;225.23;;;44.13;;
8650;SDS011;4363;52.346;14.516;2024-01-07T17:30:24;316.97;;;58.37;;
8650;SDS011;4363;52.346;14.516;2024-01-07T17:32:54;213.60;;;38.33;;
8650;SDS011;4363;52.346;14.516;2024-01-07T17:35:20;188.63;;;34.30;;
8650;SDS011;4363;52.346;14.516;2024-01-07T17:37:46;174.90;;;36.77;;
8650;SDS011;4363;52.346;14.516;2024-01-07T17:40:12;187.73;;;34.90;;
8650;SDS011;4363;52.346;14.516;2024-01-07T17:42:38;207.53;;;38.50;;
8650;SDS011;4363;52.346;14.516;2024-01-07T17:45:05;224.60;;;47.67;;
8650;SDS011;4363;52.346;14.516;2024-01-07T17:47:39;241.97;;;41.63;;
8650;SDS011;4363;52.346;14.516;2024-01-07T17:50:06;166.73;;;31.63;;
8650;SDS011;4363;52.346;14.516;2024-01-07T17:52:34;183.23;;;34.33;;
8650;SDS011;4363;52.346;14.516;2024-01-07T17:55:00;192.13;;;37.43;;
8650;SDS011;4363;52.346;14.516;2024-01-07T17:57:27;238.73;;;42.30;;
8650;SDS011;4363;52.346;14.516;2024-01-07T18:00:00;243.37;;;47.33;;
8650;SDS011;4363;52.346;14.516;2024-01-07T18:02:27;231.17;;;41.00;;
8650;SDS011;4363;52.346;14.516;2024-01-07T18:04:53;239.63;;;45.57;;
8650;SDS011;4363;52.346;14.516;2024-01-07T18:07:19;200.27;;;36.37;;
8650;SDS011;4363;52.346;14.516;2024-01-07T18:09:46;202.70;;;37.43;;
8650;SDS011;4363;52.346;14.516;2024-01-07T18:12:14;227.90;;;41.10;;
8650;SDS011;4363;52.346;14.516;2024-01-07T18:14:41;278.53;;;56.07;;
8650;SDS011;4363;52.346;14.516;2024-01-07T18:17:07;229.53;;;42.93;;
8650;SDS011;4363;52.346;14.516;2024-01-07T18:19:33;244.87;;;41.60;;
8650;SDS011;4363;52.346;14.516;2024-01-07T18:21:59;285.43;;;52.97;;
8650;SDS011;4363;52.346;14.516;2024-01-07T18:24:25;337.00;;;63.27;;
8650;SDS011;4363;52.346;14.516;2024-01-07T18:26:51;235.37;;;41.77;;
8650;SDS011;4363;52.346;14.516;2024-01-07T18:29:21;203.57;;;37.10;;
8650;SDS011;4363;52.346;14.516;2024-01-07T18:31:47;209.10;;;40.50;;
8650;SDS011;4363;52.346;14.516;2024-01-07T18:34:13;218.97;;;41.07;;
8650;SDS011;4363;52.346;14.516;2024-01-07T18:36:39;183.70;;;32.87;;
8650;SDS011;4363;52.346;14.516;2024-01-07T18:39:06;233.80;;;43.53;;
8650;SDS011;4363;52.346;14.516;2024-01-07T18:41:33;264.80;;;47.50;;
8650;SDS011;4363;52.346;14.516;2024-01-07T18:43:59;232.40;;;44.90;;
8650;SDS011;4363;52.346;14.516;2024-01-07T18:46:25;199.27;;;35.93;;
8650;SDS011;4363;52.346;14.516;2024-01-07T18:48:52;260.53;;;48.20;;
8650;SDS011;4363;52.346;14.516;2024-01-07T18:51:18;216.47;;;44.63;;
8650;SDS011;4363;52.346;14.516;2024-01-07T18:53:43;207.57;;;40.63;;
8650;SDS011;4363;52.346;14.516;2024-01-07T18:56:10;250.07;;;47.63;;
8650;SDS011;4363;52.346;14.516;2024-01-07T18:58:36;258.03;;;49.93;;
8650;SDS011;4363;52.346;14.516;2024-01-07T19:01:05;354.80;;;92.07;;
8650;SDS011;4363;52.346;14.516;2024-01-07T19:03:31;235.33;;;49.80;;
8650;SDS011;4363;52.346;14.516;2024-01-07T19:05:57;200.90;;;43.17;;
8650;SDS011;4363;52.346;14.516;2024-01-07T19:08:24;238.23;;;47.30;;
8650;SDS011;4363;52.346;14.516;2024-01-07T19:10:50;196.07;;;39.90;;
8650;SDS011;4363;52.346;14.516;2024-01-07T19:13:16;250.70;;;49.33;;
8650;SDS011;4363;52.346;14.516;2024-01-07T19:15:42;201.73;;;39.43;;
8650;SDS011;4363;52.346;14.516;2024-01-07T19:18:10;199.40;;;39.03;;
8650;SDS011;4363;52.346;14.516;2024-01-07T19:20:36;227.57;;;40.63;;
8650;SDS011;4363;52.346;14.516;2024-01-07T19:23:03;224.90;;;44.93;;
8650;SDS011;4363;52.346;14.516;2024-01-07T19:25:31;237.83;;;46.83;;
8650;SDS011;4363;52.346;14.516;2024-01-07T19:27:58;266.03;;;55.90;;
8650;SDS011;4363;52.346;14.516;2024-01-07T19:30:24;225.10;;;43.30;;
8650;SDS011;4363;52.346;14.516;2024-01-07T19:32:53;199.27;;;38.37;;
8650;SDS011;4363;52.346;14.516;2024-01-07T19:35:20;264.90;;;50.30;;
8650;SDS011;4363;52.346;14.516;2024-01-07T19:37:46;274.70;;;52.50;;
8650;SDS011;4363;52.346;14.516;2024-01-07T19:40:12;211.67;;;39.83;;
8650;SDS011;4363;52.346;14.516;2024-01-07T19:42:38;267.47;;;54.67;;
8650;SDS011;4363;52.346;14.516;2024-01-07T19:45:04;301.57;;;58.57;;
8650;SDS011;4363;52.346;14.516;2024-01-07T19:47:31;187.27;;;34.73;;
8650;SDS011;4363;52.346;14.516;2024-01-07T19:49:56;229.43;;;39.57;;
8650;SDS011;4363;52.346;14.516;2024-01-07T19:52:22;223.27;;;37.30;;
8650;SDS011;4363;52.346;14.516;2024-01-07T19:54:48;249.30;;;45.63;;
8650;SDS011;4363;52.346;14.516;2024-01-07T19:57:15;228.83;;;40.60;;
8650;SDS011;4363;52.346;14.516;2024-01-07T19:59:40;229.70;;;40.20;;
8650;SDS011;4363;52.346;14.516;2024-01-07T20:02:06;278.20;;;53.43;;
8650;SDS011;4363;52.346;14.516;2024-01-07T20:04:33;202.47;;;35.70;;
8650;SDS011;4363;52.346;14.516;2024-01-07T20:06:59;243.40;;;44.93;;
8650;SDS011;4363;52.346;14.516;2024-01-07T20:09:28;312.67;;;57.97;;
8650;SDS011;4363;52.346;14.516;2024-01-07T20:11:55;173.67;;;28.60;;
8650;SDS011;4363;52.346;14.516;2024-01-07T20:14:21;237.50;;;39.83;;
8650;SDS011;4363;52.346;14.516;2024-01-07T20:16:47;192.03;;;33.90;;
8650;SDS011;4363;52.346;14.516;2024-01-07T20:19:13;255.27;;;47.10;;
8650;SDS011;4363;52.346;14.516;2024-01-07T20:21:39;186.07;;;31.83;;
8650;SDS011;4363;52.346;14.516;2024-01-07T20:24:06;329.23;;;62.10;;
8650;SDS011;4363;52.346;14.516;2024-01-07T20:26:32;233.43;;;39.87;;
8650;SDS011;4363;52.346;14.516;2024-01-07T20:28:58;205.43;;;36.00;;
8650;SDS011;4363;52.346;14.516;2024-01-07T20:31:26;208.17;;;35.87;;
8650;SDS011;4363;52.346;14.516;2024-01-07T20:33:56;247.60;;;46.77;;
8650;SDS011;4363;52.346;14.516;2024-01-07T20:36:22;240.10;;;42.67;;
8650;SDS011;4363;52.346;14.516;2024-01-07T20:38:48;180.47;;;30.97;;
8650;SDS011;4363;52.346;14.516;2024-01-07T20:41:14;309.40;;;60.27;;
8650;SDS011;4363;52.346;14.516;2024-01-07T20:43:42;311.57;;;58.97;;
8650;SDS011;4363;52.346;14.516;2024-01-07T20:46:08;236.80;;;42.83;;
8650;SDS011;4363;52.346;14.516;2024-01-07T20:48:34;215.63;;;36.47;;
8650;SDS011;4363;52.346;14.516;2024-01-07T20:51:02;271.13;;;49.53;;
8650;SDS011;4363;52.346;14.516;2024-01-07T20:53:28;287.03;;;49.87;;
8650;SDS011;4363;52.346;14.516;2024-01-07T20:55:56;270.67;;;50.40;;
8650;SDS011;4363;52.346;14.516;2024-01-07T20:58:24;207.10;;;34.57;;
8650;SDS011;4363;52.346;14.516;2024-01-07T21:00:50;201.27;;;33.63;;
8650;SDS011;4363;52.346;14.516;2024-01-07T21:03:16;233.60;;;40.23;;
8650;SDS011;4363;52.346;14.516;2024-01-07T21:05:43;243.37;;;38.90;;
8650;SDS011;4363;52.346;14.516;2024-01-07T21:08:09;254.97;;;44.73;;
8650;SDS011;4363;52.346;14.516;2024-01-07T21:10:35;322.97;;;58.43;;
8650;SDS011;4363;52.346;14.516;2024-01-07T21:13:02;175.27;;;30.03;;
8650;SDS011;4363;52.346;14.516;2024-01-07T21:15:28;201.73;;;35.47;;
8650;SDS011;4363;52.346;14.516;2024-01-07T21:17:54;268.47;;;46.50;;
8650;SDS011;4363;52.346;14.516;2024-01-07T21:20:26;171.10;;;29.33;;
8650;SDS011;4363;52.346;14.516;2024-01-07T21:22:53;183.27;;;29.50;;
8650;SDS011;4363;52.346;14.516;2024-01-07T21:28:22;237.47;;;42.27;;
8650;SDS011;4363;52.346;14.516;2024-01-07T21:30:48;210.83;;;38.33;;
8650;SDS011;4363;52.346;14.516;2024-01-07T21:33:14;268.57;;;46.30;;
8650;SDS011;4363;52.346;14.516;2024-01-07T21:35:40;210.80;;;36.30;;
8650;SDS011;4363;52.346;14.516;2024-01-07T21:38:06;252.30;;;46.83;;
8650;SDS011;4363;52.346;14.516;2024-01-07T21:40:32;206.87;;;34.33;;
8650;SDS011;4363;52.346;14.516;2024-01-07T21:42:58;219.77;;;35.30;;
8650;SDS011;4363;52.346;14.516;2024-01-07T21:45:24;324.73;;;54.37;;
8650;SDS011;4363;52.346;14.516;2024-01-07T21:47:50;228.83;;;34.20;;
8650;SDS011;4363;52.346;14.516;2024-01-07T21:50:16;228.77;;;39.13;;
8650;SDS011;4363;52.346;14.516;2024-01-07T21:52:53;226.17;;;35.03;;
8650;SDS011;4363;52.346;14.516;2024-01-07T21:55:19;268.73;;;41.33;;
8650;SDS011;4363;52.346;14.516;2024-01-07T21:57:45;188.17;;;28.53;;
8650;SDS011;4363;52.346;14.516;2024-01-07T22:00:12;325.13;;;54.30;;
8650;SDS011;4363;52.346;14.516;2024-01-07T22:02:38;257.13;;;40.73;;
8650;SDS011;4363;52.346;14.516;2024-01-07T22:05:04;317.53;;;52.13;;
8650;SDS011;4363;52.346;14.516;2024-01-07T22:07:32;242.13;;;37.80;;
8650;SDS011;4363;52.346;14.516;2024-01-07T22:09:58;254.20;;;38.77;;
8650;SDS011;4363;52.346;14.516;2024-01-07T22:12:24;199.10;;;32.63;;
8650;SDS011;4363;52.346;14.516;2024-01-07T22:14:50;221.27;;;36.70;;
8650;SDS011;4363;52.346;14.516;2024-01-07T22:17:16;261.83;;;43.60;;
8650;SDS011;4363;52.346;14.516;2024-01-07T22:19:42;246.43;;;38.43;;
8650;SDS011;4363;52.346;14.516;2024-01-07T22:22:08;257.77;;;39.30;;
8650;SDS011;4363;52.346;14.516;2024-01-07T22:24:34;223.03;;;33.90;;
8650;SDS011;4363;52.346;14.516;2024-01-07T22:27:00;234.83;;;34.53;;
8650;SDS011;4363;52.346;14.516;2024-01-07T22:29:26;297.77;;;50.47;;
8650;SDS011;4363;52.346;14.516;2024-01-07T22:31:53;213.10;;;32.57;;
8650;SDS011;4363;52.346;14.516;2024-01-07T22:34:19;253.33;;;39.13;;
8650;SDS011;4363;52.346;14.516;2024-01-07T22:36:45;228.83;;;34.30;;
8650;SDS011;4363;52.346;14.516;2024-01-07T22:39:11;311.40;;;48.90;;
8650;SDS011;4363;52.346;14.516;2024-01-07T22:41:37;195.20;;;28.40;;
8650;SDS011;4363;52.346;14.516;2024-01-07T22:44:06;220.30;;;32.77;;
8650;SDS011;4363;52.346;14.516;2024-01-07T22:46:32;199.47;;;29.80;;
8650;SDS011;4363;52.346;14.516;2024-01-07T22:48:59;185.67;;;27.43;;
8650;SDS011;4363;52.346;14.516;2024-01-07T22:51:24;222.23;;;31.83;;
8650;SDS011;4363;52.346;14.516;2024-01-07T22:53:50;162.17;;;23.17;;
8650;SDS011;4363;52.346;14.516;2024-01-07T22:56:16;256.93;;;37.93;;
8650;SDS011;4363;52.346;14.516;2024-01-07T22:58:44;207.83;;;30.00;;
8650;SDS011;4363;52.346;14.516;2024-01-07T23:01:10;286.17;;;42.83;;
8650;SDS011;4363;52.346;14.516;2024-01-07T23:03:36;237.57;;;32.67;;
8650;SDS011;4363;52.346;14.516;2024-01-07T23:06:06;209.10;;;29.27;;
8650;SDS011;4363;52.346;14.516;2024-01-07T23:08:33;177.43;;;24.70;;
8650;SDS011;4363;52.346;14.516;2024-01-07T23:10:59;198.20;;;28.43;;
8650;SDS011;4363;52.346;14.516;2024-01-07T23:13:25;201.20;;;28.70;;
8650;SDS011;4363;52.346;14.516;2024-01-07T23:15:51;231.83;;;32.77;;
8650;SDS011;4363;52.346;14.516;2024-01-07T23:18:17;270.60;;;39.00;;
8650;SDS011;4363;52.346;14.516;2024-01-07T23:20:43;213.07;;;29.60;;
8650;SDS011;4363;52.346;14.516;2024-01-07T23:23:11;236.13;;;34.00;;
8650;SDS011;4363;52.346;14.516;2024-01-07T23:25:38;179.83;;;25.43;;
8650;SDS011;4363;52.346;14.516;2024-01-07T23:28:04;252.53;;;37.43;;
8650;SDS011;4363;52.346;14.516;2024-01-07T23:30:30;197.10;;;27.80;;
8650;SDS011;4363;52.346;14.516;2024-01-07T23:32:56;228.27;;;31.50;;
8650;SDS011;4363;52.346;14.516;2024-01-07T23:35:22;240.20;;;34.47;;
8650;SDS011;4363;52.346;14.516;2024-01-07T23:37:48;218.03;;;30.33;;
8650;SDS011;4363;52.346;14.516;2024-01-07T23:40:14;241.03;;;35.30;;
8650;SDS011;4363;52.346;14.516;2024-01-07T23:42:40;196.73;;;28.70;;
8650;SDS011;4363;52.346;14.516;2024-01-07T23:45:06;304.03;;;50.47;;
8650;SDS011;4363;52.346;14.516;2024-01-07T23:47:32;224.90;;;32.83;;
8650;SDS011;4363;52.346;14.516;2024-01-07T23:49:58;233.60;;;34.13;;
8650;SDS011;4363;52.346;14.516;2024-01-07T23:52:25;247.47;;;35.73;;
8650;SDS011;4363;52.346;14.516;2024-01-07T23:54:51;321.53;;;46.43;;
8650;SDS011;4363;52.346;14.516;2024-01-07T23:57:17;240.20;;;33.30;;
8650;SDS011;4363;52.346;14.516;2024-01-07T23:59:43;238.50;;;33.30;;
